sensor_id;sensor_type;location;lat;lon;timestamp;P1;durP1;ratioP1;P2;durP2;ratioP2
19004;SDS011;9635;52.078;8.648;2023-02-28T00:04:06;9.93;;;4.88;;
19004;SDS011;9635;52.078;8.648;2023-02-28T00:09:11;9.38;;;4.85;;
19004;SDS011;9635;52.078;8.648;2023-02-28T00:14:14;8.98;;;5.13;;
19004;SDS011;9635;52.078;8.648;2023-02-28T00:19:17;6.35;;;4.57;;
19004;SDS011;9635;52.078;8.648;2023-02-28T00:24:21;6.88;;;4.72;;
19004;SDS011;9635;52.078;8.648;2023-02-28T00:29:24;9.30;;;5.22;;
19004;SDS011;9635;52.078;8.648;2023-02-28T00:34:26;8.82;;;5.55;;
19004;SDS011;9635;52.078;8.648;2023-02-28T00:39:31;14.00;;;6.30;;
19004;SDS011;9635;52.078;8.648;2023-02-28T00:44:36;12.10;;;6.60;;
19004;SDS011;9635;52.078;8.648;2023-02-28T00:49:39;12.02;;;6.63;;
19004;SDS011;9635;52.078;8.648;2023-02-28T00:54:44;10.30;;;6.35;;
19004;SDS011;9635;52.078;8.648;2023-02-28T00:59:48;12.73;;;6.57;;
19004;SDS011;9635;52.078;8.648;2023-02-28T01:04:51;13.73;;;7.00;;
19004;SDS011;9635;52.078;8.648;2023-02-28T01:09:56;13.32;;;7.60;;
19004;SDS011;9635;52.078;8.648;2023-02-28T01:14:59;12.20;;;7.43;;
19004;SDS011;9635;52.078;8.648;2023-02-28T01:20:02;16.35;;;7.70;;
19004;SDS011;9635;52.078;8.648;2023-02-28T01:25:07;15.27;;;8.35;;
19004;SDS011;9635;52.078;8.648;2023-02-28T01:30:11;12.02;;;7.47;;
19004;SDS011;9635;52.078;8.648;2023-02-28T01:35:14;12.18;;;7.68;;
19004;SDS011;9635;52.078;8.648;2023-02-28T01:40:19;13.07;;;7.28;;
19004;SDS011;9635;52.078;8.648;2023-02-28T01:45:22;12.15;;;7.47;;
19004;SDS011;9635;52.078;8.648;2023-02-28T01:50:28;17.60;;;8.50;;
19004;SDS011;9635;52.078;8.648;2023-02-28T01:55:34;12.98;;;7.75;;
19004;SDS011;9635;52.078;8.648;2023-02-28T02:00:38;13.88;;;8.65;;
19004;SDS011;9635;52.078;8.648;2023-02-28T02:05:44;15.43;;;7.90;;
19004;SDS011;9635;52.078;8.648;2023-02-28T02:10:51;13.73;;;7.93;;
19004;SDS011;9635;52.078;8.648;2023-02-28T02:15:57;12.10;;;7.43;;
19004;SDS011;9635;52.078;8.648;2023-02-28T02:21:15;13.77;;;7.45;;
19004;SDS011;9635;52.078;8.648;2023-02-28T02:26:45;11.18;;;6.70;;
19004;SDS011;9635;52.078;8.648;2023-02-28T02:32:02;14.60;;;7.82;;
19004;SDS011;9635;52.078;8.648;2023-02-28T02:37:24;14.02;;;6.45;;
19004;SDS011;9635;52.078;8.648;2023-02-28T02:42:35;15.68;;;6.88;;
19004;SDS011;9635;52.078;8.648;2023-02-28T02:47:44;13.48;;;7.28;;
19004;SDS011;9635;52.078;8.648;2023-02-28T02:52:50;12.52;;;7.38;;
19004;SDS011;9635;52.078;8.648;2023-02-28T02:57:57;13.25;;;7.32;;
19004;SDS011;9635;52.078;8.648;2023-02-28T03:03:04;10.20;;;6.78;;
19004;SDS011;9635;52.078;8.648;2023-02-28T03:08:11;9.30;;;6.72;;
19004;SDS011;9635;52.078;8.648;2023-02-28T03:13:21;10.45;;;6.80;;
19004;SDS011;9635;52.078;8.648;2023-02-28T03:18:40;12.68;;;6.97;;
19004;SDS011;9635;52.078;8.648;2023-02-28T03:23:54;14.20;;;7.25;;
19004;SDS011;9635;52.078;8.648;2023-02-28T03:29:03;13.27;;;7.03;;
19004;SDS011;9635;52.078;8.648;2023-02-28T03:34:15;11.27;;;6.63;;
19004;SDS011;9635;52.078;8.648;2023-02-28T03:39:24;13.55;;;7.07;;
19004;SDS011;9635;52.078;8.648;2023-02-28T03:44:32;17.10;;;8.13;;
19004;SDS011;9635;52.078;8.648;2023-02-28T03:49:40;12.32;;;6.90;;
19004;SDS011;9635;52.078;8.648;2023-02-28T03:54:50;11.35;;;7.03;;
19004;SDS011;9635;52.078;8.648;2023-02-28T03:59:56;12.25;;;7.72;;
19004;SDS011;9635;52.078;8.648;2023-02-28T04:05:12;14.45;;;7.07;;
19004;SDS011;9635;52.078;8.648;2023-02-28T04:10:17;12.00;;;7.15;;
19004;SDS011;9635;52.078;8.648;2023-02-28T04:15:20;13.05;;;7.28;;
19004;SDS011;9635;52.078;8.648;2023-02-28T04:20:24;17.73;;;8.13;;
19004;SDS011;9635;52.078;8.648;2023-02-28T04:25:28;11.43;;;7.38;;
19004;SDS011;9635;52.078;8.648;2023-02-28T04:30:31;12.85;;;7.00;;
19004;SDS011;9635;52.078;8.648;2023-02-28T04:35:34;14.20;;;7.72;;
19004;SDS011;9635;52.078;8.648;2023-02-28T04:40:38;11.25;;;6.03;;
19004;SDS011;9635;52.078;8.648;2023-02-28T04:45:41;13.07;;;6.43;;
19004;SDS011;9635;52.078;8.648;2023-02-28T04:50:44;13.45;;;6.68;;
19004;SDS011;9635;52.078;8.648;2023-02-28T04:55:48;11.68;;;7.13;;
19004;SDS011;9635;52.078;8.648;2023-02-28T05:00:51;15.40;;;7.88;;
19004;SDS011;9635;52.078;8.648;2023-02-28T05:05:54;11.15;;;7.80;;
19004;SDS011;9635;52.078;8.648;2023-02-28T05:10:59;13.88;;;7.82;;
19004;SDS011;9635;52.078;8.648;2023-02-28T05:16:03;12.50;;;7.90;;
19004;SDS011;9635;52.078;8.648;2023-02-28T05:21:06;14.23;;;7.00;;
19004;SDS011;9635;52.078;8.648;2023-02-28T05:26:27;13.65;;;7.95;;
19004;SDS011;9635;52.078;8.648;2023-02-28T05:31:30;14.02;;;7.80;;
19004;SDS011;9635;52.078;8.648;2023-02-28T05:36:33;13.98;;;7.90;;
19004;SDS011;9635;52.078;8.648;2023-02-28T05:41:41;14.10;;;8.25;;
19004;SDS011;9635;52.078;8.648;2023-02-28T05:46:45;15.77;;;7.70;;
19004;SDS011;9635;52.078;8.648;2023-02-28T05:51:48;12.90;;;7.22;;
19004;SDS011;9635;52.078;8.648;2023-02-28T05:56:52;11.23;;;7.35;;
19004;SDS011;9635;52.078;8.648;2023-02-28T06:01:55;14.20;;;7.72;;
19004;SDS011;9635;52.078;8.648;2023-02-28T06:06:58;11.05;;;7.82;;
19004;SDS011;9635;52.078;8.648;2023-02-28T06:12:02;15.15;;;8.10;;
19004;SDS011;9635;52.078;8.648;2023-02-28T06:17:08;12.68;;;7.75;;
19004;SDS011;9635;52.078;8.648;2023-02-28T06:22:11;16.58;;;7.68;;
19004;SDS011;9635;52.078;8.648;2023-02-28T06:27:16;15.07;;;8.65;;
19004;SDS011;9635;52.078;8.648;2023-02-28T06:32:18;14.25;;;8.90;;
19004;SDS011;9635;52.078;8.648;2023-02-28T06:37:21;16.73;;;9.02;;
19004;SDS011;9635;52.078;8.648;2023-02-28T06:42:28;17.92;;;9.07;;
19004;SDS011;9635;52.078;8.648;2023-02-28T06:47:32;13.60;;;8.50;;
19004;SDS011;9635;52.078;8.648;2023-02-28T06:52:34;15.95;;;8.35;;
19004;SDS011;9635;52.078;8.648;2023-02-28T06:57:40;15.13;;;8.77;;
19004;SDS011;9635;52.078;8.648;2023-02-28T07:02:42;12.55;;;8.15;;
19004;SDS011;9635;52.078;8.648;2023-02-28T07:07:45;13.32;;;7.97;;
19004;SDS011;9635;52.078;8.648;2023-02-28T07:12:49;13.75;;;8.35;;
19004;SDS011;9635;52.078;8.648;2023-02-28T07:17:52;15.77;;;8.75;;
19004;SDS011;9635;52.078;8.648;2023-02-28T07:22:55;15.10;;;9.02;;
19004;SDS011;9635;52.078;8.648;2023-02-28T07:27:59;13.57;;;8.52;;
19004;SDS011;9635;52.078;8.648;2023-02-28T07:33:02;16.02;;;9.32;;
19004;SDS011;9635;52.078;8.648;2023-02-28T07:38:05;14.13;;;9.02;;
19004;SDS011;9635;52.078;8.648;2023-02-28T07:43:11;22.50;;;9.93;;
19004;SDS011;9635;52.078;8.648;2023-02-28T07:48:14;22.58;;;11.50;;
19004;SDS011;9635;52.078;8.648;2023-02-28T07:53:17;17.73;;;10.02;;
19004;SDS011;9635;52.078;8.648;2023-02-28T07:58:21;14.73;;;8.73;;
19004;SDS011;9635;52.078;8.648;2023-02-28T08:03:24;13.40;;;7.95;;
19004;SDS011;9635;52.078;8.648;2023-02-28T08:08:27;13.27;;;7.80;;
19004;SDS011;9635;52.078;8.648;2023-02-28T08:13:33;14.35;;;8.23;;
19004;SDS011;9635;52.078;8.648;2023-02-28T08:18:36;13.95;;;8.18;;
19004;SDS011;9635;52.078;8.648;2023-02-28T08:23:39;14.85;;;7.70;;
19004;SDS011;9635;52.078;8.648;2023-02-28T08:28:43;16.30;;;7.65;;
19004;SDS011;9635;52.078;8.648;2023-02-28T08:33:46;15.05;;;7.55;;
19004;SDS011;9635;52.078;8.648;2023-02-28T08:38:52;17.85;;;7.65;;
19004;SDS011;9635;52.078;8.648;2023-02-28T08:43:56;13.40;;;7.50;;
19004;SDS011;9635;52.078;8.648;2023-02-28T08:48:59;11.15;;;8.43;;
19004;SDS011;9635;52.078;8.648;2023-02-28T08:54:03;15.15;;;8.02;;
19004;SDS011;9635;52.078;8.648;2023-02-28T08:59:08;10.43;;;8.13;;
19004;SDS011;9635;52.078;8.648;2023-02-28T09:04:11;13.25;;;8.63;;
19004;SDS011;9635;52.078;8.648;2023-02-28T09:09:20;12.15;;;7.50;;
19004;SDS011;9635;52.078;8.648;2023-02-28T09:14:24;11.55;;;7.10;;
19004;SDS011;9635;52.078;8.648;2023-02-28T09:19:27;12.38;;;6.85;;
19004;SDS011;9635;52.078;8.648;2023-02-28T09:24:29;14.05;;;5.32;;
19004;SDS011;9635;52.078;8.648;2023-02-28T09:29:34;12.00;;;5.85;;
19004;SDS011;9635;52.078;8.648;2023-02-28T09:34:37;9.98;;;6.43;;
19004;SDS011;9635;52.078;8.648;2023-02-28T09:39:40;8.75;;;5.70;;
19004;SDS011;9635;52.078;8.648;2023-02-28T09:44:44;7.70;;;4.57;;
19004;SDS011;9635;52.078;8.648;2023-02-28T09:49:49;6.25;;;4.47;;
19004;SDS011;9635;52.078;8.648;2023-02-28T09:54:53;3.72;;;2.25;;
19004;SDS011;9635;52.078;8.648;2023-02-28T10:00:03;3.85;;;1.20;;
19004;SDS011;9635;52.078;8.648;2023-02-28T10:05:20;2.90;;;1.10;;
19004;SDS011;9635;52.078;8.648;2023-02-28T10:10:29;1.65;;;1.40;;
19004;SDS011;9635;52.078;8.648;2023-02-28T10:15:41;2.23;;;1.37;;
19004;SDS011;9635;52.078;8.648;2023-02-28T10:20:44;2.65;;;1.45;;
19004;SDS011;9635;52.078;8.648;2023-02-28T10:25:50;1.65;;;1.23;;
19004;SDS011;9635;52.078;8.648;2023-02-28T10:31:00;2.63;;;1.00;;
19004;SDS011;9635;52.078;8.648;2023-02-28T10:36:03;9.57;;;2.22;;
19004;SDS011;9635;52.078;8.648;2023-02-28T10:41:08;1.98;;;1.30;;
19004;SDS011;9635;52.078;8.648;2023-02-28T10:46:15;2.97;;;1.40;;
19004;SDS011;9635;52.078;8.648;2023-02-28T10:51:27;3.40;;;1.08;;
19004;SDS011;9635;52.078;8.648;2023-02-28T10:56:37;2.55;;;1.08;;
19004;SDS011;9635;52.078;8.648;2023-02-28T11:01:42;3.15;;;1.30;;
19004;SDS011;9635;52.078;8.648;2023-02-28T11:06:46;2.50;;;1.27;;
19004;SDS011;9635;52.078;8.648;2023-02-28T11:11:50;2.75;;;1.48;;
19004;SDS011;9635;52.078;8.648;2023-02-28T11:16:56;2.75;;;1.40;;
19004;SDS011;9635;52.078;8.648;2023-02-28T11:22:05;3.10;;;1.17;;
19004;SDS011;9635;52.078;8.648;2023-02-28T11:27:14;2.38;;;0.98;;
19004;SDS011;9635;52.078;8.648;2023-02-28T11:32:29;2.70;;;1.20;;
19004;SDS011;9635;52.078;8.648;2023-02-28T11:37:33;8.98;;;1.65;;
19004;SDS011;9635;52.078;8.648;2023-02-28T11:42:43;1.75;;;1.42;;
19004;SDS011;9635;52.078;8.648;2023-02-28T11:48:00;1.83;;;1.30;;
19004;SDS011;9635;52.078;8.648;2023-02-28T11:53:14;3.28;;;1.30;;
19004;SDS011;9635;52.078;8.648;2023-02-28T11:58:26;2.08;;;1.40;;
19004;SDS011;9635;52.078;8.648;2023-02-28T12:03:42;1.85;;;1.50;;
19004;SDS011;9635;52.078;8.648;2023-02-28T12:09:02;1.58;;;1.10;;
19004;SDS011;9635;52.078;8.648;2023-02-28T12:19:47;2.35;;;1.58;;
19004;SDS011;9635;52.078;8.648;2023-02-28T12:30:35;4.65;;;2.33;;
19004;SDS011;9635;52.078;8.648;2023-02-28T12:35:46;2.50;;;1.55;;
19004;SDS011;9635;52.078;8.648;2023-02-28T12:40:53;2.30;;;1.60;;
19004;SDS011;9635;52.078;8.648;2023-02-28T12:46:00;2.72;;;1.90;;
19004;SDS011;9635;52.078;8.648;2023-02-28T12:51:11;2.35;;;1.50;;
19004;SDS011;9635;52.078;8.648;2023-02-28T12:56:16;2.88;;;1.90;;
19004;SDS011;9635;52.078;8.648;2023-02-28T13:01:42;2.92;;;2.08;;
19004;SDS011;9635;52.078;8.648;2023-02-28T13:07:10;4.20;;;1.70;;
19004;SDS011;9635;52.078;8.648;2023-02-28T13:12:26;2.63;;;1.90;;
19004;SDS011;9635;52.078;8.648;2023-02-28T13:17:29;2.85;;;1.77;;
19004;SDS011;9635;52.078;8.648;2023-02-28T13:22:38;2.00;;;1.80;;
19004;SDS011;9635;52.078;8.648;2023-02-28T13:27:43;1.83;;;1.55;;
19004;SDS011;9635;52.078;8.648;2023-02-28T13:32:47;5.10;;;2.10;;
19004;SDS011;9635;52.078;8.648;2023-02-28T13:38:33;3.70;;;2.00;;
19004;SDS011;9635;52.078;8.648;2023-02-28T13:49:18;4.40;;;1.90;;
19004;SDS011;9635;52.078;8.648;2023-02-28T13:54:30;3.13;;;2.20;;
19004;SDS011;9635;52.078;8.648;2023-02-28T13:59:44;2.35;;;1.90;;
19004;SDS011;9635;52.078;8.648;2023-02-28T14:04:57;3.67;;;1.80;;
19004;SDS011;9635;52.078;8.648;2023-02-28T14:10:05;3.72;;;1.80;;
19004;SDS011;9635;52.078;8.648;2023-02-28T14:15:25;2.90;;;2.20;;
19004;SDS011;9635;52.078;8.648;2023-02-28T14:20:44;4.38;;;1.90;;
19004;SDS011;9635;52.078;8.648;2023-02-28T14:25:53;3.17;;;2.70;;
19004;SDS011;9635;52.078;8.648;2023-02-28T14:31:07;2.90;;;1.90;;
19004;SDS011;9635;52.078;8.648;2023-02-28T14:36:16;3.70;;;2.13;;
19004;SDS011;9635;52.078;8.648;2023-02-28T14:41:26;3.65;;;2.10;;
19004;SDS011;9635;52.078;8.648;2023-02-28T14:46:35;4.00;;;2.13;;
19004;SDS011;9635;52.078;8.648;2023-02-28T14:51:40;3.13;;;2.20;;
19004;SDS011;9635;52.078;8.648;2023-02-28T14:56:44;4.07;;;2.50;;
19004;SDS011;9635;52.078;8.648;2023-02-28T15:01:52;3.97;;;2.78;;
19004;SDS011;9635;52.078;8.648;2023-02-28T15:07:10;3.85;;;2.33;;
19004;SDS011;9635;52.078;8.648;2023-02-28T15:12:14;5.68;;;2.42;;
19004;SDS011;9635;52.078;8.648;2023-02-28T15:17:19;3.53;;;2.55;;
19004;SDS011;9635;52.078;8.648;2023-02-28T15:22:27;4.38;;;2.80;;
19004;SDS011;9635;52.078;8.648;2023-02-28T15:27:35;4.57;;;2.72;;
19004;SDS011;9635;52.078;8.648;2023-02-28T15:32:44;3.70;;;2.67;;
19004;SDS011;9635;52.078;8.648;2023-02-28T15:37:48;5.10;;;2.53;;
19004;SDS011;9635;52.078;8.648;2023-02-28T15:48:20;4.38;;;2.38;;
19004;SDS011;9635;52.078;8.648;2023-02-28T15:53:26;4.47;;;3.10;;
19004;SDS011;9635;52.078;8.648;2023-02-28T15:58:35;4.25;;;2.63;;
19004;SDS011;9635;52.078;8.648;2023-02-28T16:03:40;4.43;;;3.10;;
19004;SDS011;9635;52.078;8.648;2023-02-28T16:08:46;5.15;;;3.15;;
19004;SDS011;9635;52.078;8.648;2023-02-28T16:13:51;5.13;;;2.58;;
19004;SDS011;9635;52.078;8.648;2023-02-28T16:18:55;3.45;;;2.45;;
19004;SDS011;9635;52.078;8.648;2023-02-28T16:23:58;5.03;;;2.95;;
19004;SDS011;9635;52.078;8.648;2023-02-28T16:29:02;6.03;;;3.15;;
19004;SDS011;9635;52.078;8.648;2023-02-28T16:34:05;4.88;;;2.72;;
19004;SDS011;9635;52.078;8.648;2023-02-28T16:39:08;4.65;;;3.10;;
19004;SDS011;9635;52.078;8.648;2023-02-28T16:44:13;4.80;;;3.15;;
19004;SDS011;9635;52.078;8.648;2023-02-28T16:49:23;4.80;;;3.67;;
19004;SDS011;9635;52.078;8.648;2023-02-28T16:54:26;4.03;;;3.10;;
19004;SDS011;9635;52.078;8.648;2023-02-28T16:59:30;5.38;;;3.40;;
19004;SDS011;9635;52.078;8.648;2023-02-28T17:04:33;5.88;;;3.70;;
19004;SDS011;9635;52.078;8.648;2023-02-28T17:09:36;6.47;;;4.25;;
19004;SDS011;9635;52.078;8.648;2023-02-28T17:14:45;5.45;;;4.43;;
19004;SDS011;9635;52.078;8.648;2023-02-28T17:19:47;8.60;;;4.43;;
19004;SDS011;9635;52.078;8.648;2023-02-28T17:24:50;8.73;;;4.68;;
19004;SDS011;9635;52.078;8.648;2023-02-28T17:29:55;5.47;;;4.13;;
19004;SDS011;9635;52.078;8.648;2023-02-28T17:34:57;5.47;;;4.10;;
19004;SDS011;9635;52.078;8.648;2023-02-28T17:40:00;5.45;;;4.32;;
19004;SDS011;9635;52.078;8.648;2023-02-28T17:45:05;6.40;;;3.78;;
19004;SDS011;9635;52.078;8.648;2023-02-28T17:50:11;7.15;;;4.70;;
19004;SDS011;9635;52.078;8.648;2023-02-28T17:55:17;10.10;;;4.47;;
19004;SDS011;9635;52.078;8.648;2023-02-28T18:00:22;10.38;;;4.55;;
19004;SDS011;9635;52.078;8.648;2023-02-28T18:05:26;14.52;;;4.82;;
19004;SDS011;9635;52.078;8.648;2023-02-28T18:10:29;10.45;;;5.40;;
19004;SDS011;9635;52.078;8.648;2023-02-28T18:15:35;12.07;;;5.88;;
19004;SDS011;9635;52.078;8.648;2023-02-28T18:20:40;12.50;;;6.80;;
19004;SDS011;9635;52.078;8.648;2023-02-28T18:25:44;18.15;;;8.68;;
19004;SDS011;9635;52.078;8.648;2023-02-28T18:30:48;22.58;;;10.85;;
19004;SDS011;9635;52.078;8.648;2023-02-28T18:35:54;22.02;;;12.20;;
19004;SDS011;9635;52.078;8.648;2023-02-28T18:40:58;20.00;;;9.07;;
19004;SDS011;9635;52.078;8.648;2023-02-28T18:46:04;16.42;;;9.68;;
19004;SDS011;9635;52.078;8.648;2023-02-28T18:51:08;19.00;;;12.00;;
19004;SDS011;9635;52.078;8.648;2023-02-28T18:56:13;23.05;;;13.25;;
19004;SDS011;9635;52.078;8.648;2023-02-28T19:01:19;21.88;;;11.13;;
19004;SDS011;9635;52.078;8.648;2023-02-28T19:06:23;18.25;;;9.52;;
19004;SDS011;9635;52.078;8.648;2023-02-28T19:11:26;15.20;;;9.10;;
19004;SDS011;9635;52.078;8.648;2023-02-28T19:16:30;17.73;;;10.10;;
19004;SDS011;9635;52.078;8.648;2023-02-28T19:21:34;14.65;;;9.65;;
19004;SDS011;9635;52.078;8.648;2023-02-28T19:26:37;12.35;;;8.25;;
19004;SDS011;9635;52.078;8.648;2023-02-28T19:31:41;12.30;;;7.65;;
19004;SDS011;9635;52.078;8.648;2023-02-28T19:36:44;12.55;;;8.57;;
19004;SDS011;9635;52.078;8.648;2023-02-28T19:41:47;14.45;;;8.70;;
19004;SDS011;9635;52.078;8.648;2023-02-28T19:46:51;14.23;;;9.48;;
19004;SDS011;9635;52.078;8.648;2023-02-28T19:51:54;17.45;;;9.35;;
19004;SDS011;9635;52.078;8.648;2023-02-28T19:56:57;14.43;;;9.48;;
19004;SDS011;9635;52.078;8.648;2023-02-28T20:02:01;18.05;;;9.70;;
19004;SDS011;9635;52.078;8.648;2023-02-28T20:07:04;13.10;;;8.90;;
19004;SDS011;9635;52.078;8.648;2023-02-28T20:12:07;18.67;;;11.18;;
19004;SDS011;9635;52.078;8.648;2023-02-28T20:17:26;21.95;;;12.20;;
19004;SDS011;9635;52.078;8.648;2023-02-28T20:22:30;18.75;;;12.05;;
19004;SDS011;9635;52.078;8.648;2023-02-28T20:27:33;17.70;;;9.50;;
19004;SDS011;9635;52.078;8.648;2023-02-28T20:32:38;12.05;;;8.10;;
19004;SDS011;9635;52.078;8.648;2023-02-28T20:37:40;11.50;;;8.68;;
19004;SDS011;9635;52.078;8.648;2023-02-28T20:42:43;17.83;;;11.10;;
19004;SDS011;9635;52.078;8.648;2023-02-28T20:47:47;17.77;;;11.23;;
19004;SDS011;9635;52.078;8.648;2023-02-28T20:52:52;19.17;;;11.32;;
19004;SDS011;9635;52.078;8.648;2023-02-28T20:57:55;17.45;;;10.02;;
19004;SDS011;9635;52.078;8.648;2023-02-28T21:03:00;25.63;;;13.02;;
19004;SDS011;9635;52.078;8.648;2023-02-28T21:08:03;31.55;;;16.15;;
19004;SDS011;9635;52.078;8.648;2023-02-28T21:13:06;37.00;;;18.17;;
19004;SDS011;9635;52.078;8.648;2023-02-28T21:18:10;30.58;;;15.55;;
19004;SDS011;9635;52.078;8.648;2023-02-28T21:23:13;26.40;;;14.38;;
19004;SDS011;9635;52.078;8.648;2023-02-28T21:28:16;23.27;;;12.57;;
19004;SDS011;9635;52.078;8.648;2023-02-28T21:33:20;22.83;;;12.60;;
19004;SDS011;9635;52.078;8.648;2023-02-28T21:38:22;34.17;;;16.23;;
19004;SDS011;9635;52.078;8.648;2023-02-28T21:43:25;30.85;;;14.75;;
19004;SDS011;9635;52.078;8.648;2023-02-28T21:48:29;34.45;;;15.63;;
19004;SDS011;9635;52.078;8.648;2023-02-28T21:53:33;37.78;;;16.38;;
19004;SDS011;9635;52.078;8.648;2023-02-28T21:58:38;32.63;;;15.15;;
19004;SDS011;9635;52.078;8.648;2023-02-28T22:03:42;26.35;;;13.52;;
19004;SDS011;9635;52.078;8.648;2023-02-28T22:08:46;21.60;;;12.55;;
19004;SDS011;9635;52.078;8.648;2023-02-28T22:13:51;24.77;;;11.82;;
19004;SDS011;9635;52.078;8.648;2023-02-28T22:18:58;21.52;;;12.02;;
19004;SDS011;9635;52.078;8.648;2023-02-28T22:24:03;24.10;;;12.00;;
19004;SDS011;9635;52.078;8.648;2023-02-28T22:29:07;21.52;;;11.50;;
19004;SDS011;9635;52.078;8.648;2023-02-28T22:34:12;22.45;;;12.05;;
19004;SDS011;9635;52.078;8.648;2023-02-28T22:39:15;18.13;;;11.45;;
19004;SDS011;9635;52.078;8.648;2023-02-28T22:44:18;22.80;;;12.65;;
19004;SDS011;9635;52.078;8.648;2023-02-28T22:49:24;24.20;;;12.18;;
19004;SDS011;9635;52.078;8.648;2023-02-28T22:54:26;21.33;;;12.65;;
19004;SDS011;9635;52.078;8.648;2023-02-28T22:59:29;23.17;;;12.38;;
19004;SDS011;9635;52.078;8.648;2023-02-28T23:04:33;25.15;;;12.85;;
19004;SDS011;9635;52.078;8.648;2023-02-28T23:09:36;19.92;;;12.63;;
19004;SDS011;9635;52.078;8.648;2023-02-28T23:14:39;20.98;;;12.10;;
19004;SDS011;9635;52.078;8.648;2023-02-28T23:19:44;20.70;;;11.10;;
19004;SDS011;9635;52.078;8.648;2023-02-28T23:24:47;19.80;;;11.18;;
19004;SDS011;9635;52.078;8.648;2023-02-28T23:29:49;21.90;;;10.23;;
19004;SDS011;9635;52.078;8.648;2023-02-28T23:34:53;17.30;;;10.23;;
19004;SDS011;9635;52.078;8.648;2023-02-28T23:39:56;19.13;;;9.32;;
19004;SDS011;9635;52.078;8.648;2023-02-28T23:44:59;15.82;;;9.98;;
19004;SDS011;9635;52.078;8.648;2023-02-28T23:50:04;13.13;;;8.77;;
19004;SDS011;9635;52.078;8.648;2023-02-28T23:55:07;12.95;;;8.27;;
